sensor_id;sensor_type;location;lat;lon;timestamp;P1;durP1;ratioP1;P2;durP2;ratioP2
58097;SDS011;43913;55.940;37.504;2023-01-29T10:36:54;4.00;;;3.10;;
58097;SDS011;43913;55.940;37.504;2023-01-29T10:39:22;4.78;;;3.38;;
58097;SDS011;43913;55.940;37.504;2023-01-29T10:50:20;3.30;;;2.60;;
58097;SDS011;43913;55.940;37.504;2023-01-29T10:55:35;7.32;;;2.70;;
58097;SDS011;43913;55.940;37.504;2023-01-29T11:00:58;3.90;;;2.63;;
58097;SDS011;43913;55.940;37.504;2023-01-29T11:06:36;4.72;;;3.00;;
58097;SDS011;43913;55.940;37.504;2023-01-29T11:11:15;4.05;;;3.45;;
58097;SDS011;43913;55.940;37.504;2023-01-29T11:13:51;5.60;;;3.13;;
58097;SDS011;43913;55.940;37.504;2023-01-29T11:16:19;2.70;;;2.50;;
58097;SDS011;43913;55.940;37.504;2023-01-29T11:18:49;3.78;;;2.42;;
58097;SDS011;43913;55.940;37.504;2023-01-29T11:21:22;2.95;;;2.50;;
58097;SDS011;43913;55.940;37.504;2023-01-29T11:23:48;5.85;;;2.33;;
58097;SDS011;43913;55.940;37.504;2023-01-29T11:26:19;3.13;;;2.75;;
58097;SDS011;43913;55.940;37.504;2023-01-29T11:28:47;3.72;;;2.60;;
58097;SDS011;43913;55.940;37.504;2023-01-29T11:31:19;2.47;;;2.28;;
58097;SDS011;43913;55.940;37.504;2023-01-29T11:36:56;5.82;;;2.85;;
58097;SDS011;43913;55.940;37.504;2023-01-29T11:39:23;2.95;;;2.63;;
58097;SDS011;43913;55.940;37.504;2023-01-29T11:44:21;4.05;;;2.75;;
58097;SDS011;43913;55.940;37.504;2023-01-29T11:46:52;3.85;;;2.78;;
58097;SDS011;43913;55.940;37.504;2023-01-29T11:49:29;3.65;;;2.78;;
58097;SDS011;43913;55.940;37.504;2023-01-29T11:51:57;3.38;;;2.67;;
58097;SDS011;43913;55.940;37.504;2023-01-29T11:54:27;3.28;;;2.50;;
58097;SDS011;43913;55.940;37.504;2023-01-29T11:56:55;4.40;;;3.08;;
58097;SDS011;43913;55.940;37.504;2023-01-29T11:59:41;5.28;;;2.97;;
58097;SDS011;43913;55.940;37.504;2023-01-29T12:04:43;4.50;;;2.88;;
58097;SDS011;43913;55.940;37.504;2023-01-29T12:07:10;2.90;;;2.60;;
58097;SDS011;43913;55.940;37.504;2023-01-29T12:09:38;3.42;;;2.92;;
58097;SDS011;43913;55.940;37.504;2023-01-29T12:12:16;4.57;;;2.80;;
58097;SDS011;43913;55.940;37.504;2023-01-29T12:14:42;3.85;;;2.92;;
58097;SDS011;43913;55.940;37.504;2023-01-29T12:17:13;4.10;;;3.25;;
58097;SDS011;43913;55.940;37.504;2023-01-29T12:20:03;5.25;;;2.53;;
58097;SDS011;43913;55.940;37.504;2023-01-29T12:28:11;4.97;;;3.03;;
58097;SDS011;43913;55.940;37.504;2023-01-29T12:31:07;4.55;;;3.22;;
58097;SDS011;43913;55.940;37.504;2023-01-29T12:33:40;4.32;;;2.88;;
58097;SDS011;43913;55.940;37.504;2023-01-29T12:36:13;5.38;;;2.95;;
58097;SDS011;43913;55.940;37.504;2023-01-29T12:38:48;6.30;;;2.90;;
58097;SDS011;43913;55.940;37.504;2023-01-29T12:43:56;4.30;;;3.00;;
58097;SDS011;43913;55.940;37.504;2023-01-29T12:46:51;4.47;;;3.00;;
58097;SDS011;43913;55.940;37.504;2023-01-29T12:49:22;4.38;;;3.22;;
58097;SDS011;43913;55.940;37.504;2023-01-29T12:51:58;4.07;;;3.13;;
58097;SDS011;43913;55.940;37.504;2023-01-29T12:54:48;4.20;;;3.45;;
58097;SDS011;43913;55.940;37.504;2023-01-29T13:00:04;4.55;;;3.40;;
58097;SDS011;43913;55.940;37.504;2023-01-29T13:02:38;5.03;;;3.55;;
58097;SDS011;43913;55.940;37.504;2023-01-29T13:10:19;4.03;;;3.00;;
58097;SDS011;43913;55.940;37.504;2023-01-29T13:12:58;4.18;;;3.13;;
58097;SDS011;43913;55.940;37.504;2023-01-29T13:15:32;4.20;;;2.97;;
58097;SDS011;43913;55.940;37.504;2023-01-29T13:18:46;4.78;;;3.05;;
58097;SDS011;43913;55.940;37.504;2023-01-29T13:21:01;5.18;;;3.20;;
58097;SDS011;43913;55.940;37.504;2023-01-29T13:23:44;4.68;;;3.45;;
58097;SDS011;43913;55.940;37.504;2023-01-29T13:26:12;4.97;;;3.05;;
58097;SDS011;43913;55.940;37.504;2023-01-29T13:28:44;4.47;;;3.20;;
58097;SDS011;43913;55.940;37.504;2023-01-29T13:33:37;3.30;;;2.92;;
58097;SDS011;43913;55.940;37.504;2023-01-29T13:36:05;6.07;;;3.53;;
58097;SDS011;43913;55.940;37.504;2023-01-29T13:38:38;6.18;;;3.55;;
58097;SDS011;43913;55.940;37.504;2023-01-29T13:41:06;5.65;;;3.60;;
58097;SDS011;43913;55.940;37.504;2023-01-29T13:43:37;4.25;;;3.00;;
58097;SDS011;43913;55.940;37.504;2023-01-29T13:46:06;5.43;;;3.10;;
58097;SDS011;43913;55.940;37.504;2023-01-29T13:48:46;4.60;;;3.42;;
58097;SDS011;43913;55.940;37.504;2023-01-29T13:51:14;4.68;;;3.25;;
58097;SDS011;43913;55.940;37.504;2023-01-29T13:53:54;3.78;;;3.10;;
58097;SDS011;43913;55.940;37.504;2023-01-29T13:58:59;3.80;;;3.05;;
58097;SDS011;43913;55.940;37.504;2023-01-29T14:04:25;3.97;;;3.53;;
58097;SDS011;43913;55.940;37.504;2023-01-29T14:06:54;4.93;;;3.63;;
58097;SDS011;43913;55.940;37.504;2023-01-29T14:09:31;4.75;;;3.90;;
58097;SDS011;43913;55.940;37.504;2023-01-29T14:11:57;13.32;;;3.58;;
58097;SDS011;43913;55.940;37.504;2023-01-29T14:17:17;37.22;;;6.40;;
58097;SDS011;43913;55.940;37.504;2023-01-29T14:19:47;33.70;;;6.07;;
58097;SDS011;43913;55.940;37.504;2023-01-29T14:22:21;25.80;;;5.60;;
58097;SDS011;43913;55.940;37.504;2023-01-29T14:24:52;28.98;;;6.05;;
58097;SDS011;43913;55.940;37.504;2023-01-29T14:27:20;34.17;;;5.82;;
58097;SDS011;43913;55.940;37.504;2023-01-29T14:29:47;25.33;;;5.53;;
58097;SDS011;43913;55.940;37.504;2023-01-29T14:32:22;28.77;;;5.88;;
58097;SDS011;43913;55.940;37.504;2023-01-29T14:39:54;44.78;;;6.15;;
58097;SDS011;43913;55.940;37.504;2023-01-29T14:42:32;19.83;;;4.50;;
58097;SDS011;43913;55.940;37.504;2023-01-29T14:45:07;12.57;;;5.07;;
58097;SDS011;43913;55.940;37.504;2023-01-29T14:50:34;16.85;;;5.25;;
58097;SDS011;43913;55.940;37.504;2023-01-29T14:52:53;16.02;;;5.45;;
58097;SDS011;43913;55.940;37.504;2023-01-29T14:55:28;13.48;;;4.35;;
58097;SDS011;43913;55.940;37.504;2023-01-29T14:57:55;12.40;;;4.45;;
58097;SDS011;43913;55.940;37.504;2023-01-29T15:00:32;15.45;;;5.05;;
58097;SDS011;43913;55.940;37.504;2023-01-29T15:02:59;13.57;;;4.70;;
58097;SDS011;43913;55.940;37.504;2023-01-29T15:05:28;12.77;;;4.50;;
58097;SDS011;43913;55.940;37.504;2023-01-29T15:10:58;16.27;;;4.45;;
58097;SDS011;43913;55.940;37.504;2023-01-29T15:13:50;10.38;;;4.25;;
58097;SDS011;43913;55.940;37.504;2023-01-29T15:16:31;11.15;;;5.00;;
58097;SDS011;43913;55.940;37.504;2023-01-29T15:19:15;9.75;;;3.83;;
58097;SDS011;43913;55.940;37.504;2023-01-29T15:22:02;15.43;;;4.57;;
58097;SDS011;43913;55.940;37.504;2023-01-29T15:24:28;10.50;;;3.97;;
58097;SDS011;43913;55.940;37.504;2023-01-29T15:26:54;8.50;;;4.25;;
58097;SDS011;43913;55.940;37.504;2023-01-29T15:29:22;8.80;;;4.10;;
58097;SDS011;43913;55.940;37.504;2023-01-29T15:31:49;10.07;;;4.30;;
58097;SDS011;43913;55.940;37.504;2023-01-29T15:34:15;9.75;;;3.92;;
58097;SDS011;43913;55.940;37.504;2023-01-29T15:36:40;11.48;;;4.78;;
58097;SDS011;43913;55.940;37.504;2023-01-29T15:39:13;11.27;;;4.70;;
58097;SDS011;43913;55.940;37.504;2023-01-29T15:41:44;5.97;;;4.20;;
58097;SDS011;43913;55.940;37.504;2023-01-29T15:44:14;9.98;;;5.18;;
58097;SDS011;43913;55.940;37.504;2023-01-29T15:46:49;5.13;;;3.88;;
58097;SDS011;43913;55.940;37.504;2023-01-29T15:49:19;6.93;;;4.05;;
58097;SDS011;43913;55.940;37.504;2023-01-29T15:51:59;6.85;;;3.78;;
58097;SDS011;43913;55.940;37.504;2023-01-29T15:54:29;8.38;;;4.70;;
58097;SDS011;43913;55.940;37.504;2023-01-29T15:56:55;7.15;;;4.10;;
58097;SDS011;43913;55.940;37.504;2023-01-29T15:59:26;4.90;;;4.15;;
58097;SDS011;43913;55.940;37.504;2023-01-29T16:01:55;7.97;;;4.25;;
58097;SDS011;43913;55.940;37.504;2023-01-29T16:04:22;5.38;;;3.75;;
58097;SDS011;43913;55.940;37.504;2023-01-29T16:06:51;7.05;;;4.00;;
58097;SDS011;43913;55.940;37.504;2023-01-29T16:09:18;7.75;;;4.78;;
58097;SDS011;43913;55.940;37.504;2023-01-29T16:11:47;5.03;;;3.70;;
58097;SDS011;43913;55.940;37.504;2023-01-29T16:14:16;5.07;;;4.25;;
58097;SDS011;43913;55.940;37.504;2023-01-29T16:16:45;7.07;;;4.05;;
58097;SDS011;43913;55.940;37.504;2023-01-29T16:19:22;6.60;;;4.13;;
58097;SDS011;43913;55.940;37.504;2023-01-29T16:22:00;6.95;;;4.25;;
58097;SDS011;43913;55.940;37.504;2023-01-29T16:24:27;7.63;;;4.63;;
58097;SDS011;43913;55.940;37.504;2023-01-29T16:26:58;7.50;;;4.63;;
58097;SDS011;43913;55.940;37.504;2023-01-29T16:29:31;6.45;;;4.78;;
58097;SDS011;43913;55.940;37.504;2023-01-29T16:31:58;6.07;;;4.32;;
58097;SDS011;43913;55.940;37.504;2023-01-29T16:34:31;11.93;;;5.70;;
58097;SDS011;43913;55.940;37.504;2023-01-29T16:37:03;6.00;;;4.43;;
58097;SDS011;43913;55.940;37.504;2023-01-29T16:39:32;6.38;;;4.60;;
58097;SDS011;43913;55.940;37.504;2023-01-29T16:42:06;6.22;;;4.55;;
58097;SDS011;43913;55.940;37.504;2023-01-29T16:44:51;8.30;;;5.68;;
58097;SDS011;43913;55.940;37.504;2023-01-29T16:49:55;5.30;;;4.43;;
58097;SDS011;43913;55.940;37.504;2023-01-29T16:52:24;7.07;;;4.45;;
58097;SDS011;43913;55.940;37.504;2023-01-29T16:54:52;6.93;;;5.47;;
58097;SDS011;43913;55.940;37.504;2023-01-29T16:57:24;8.15;;;5.72;;
58097;SDS011;43913;55.940;37.504;2023-01-29T16:59:52;9.80;;;5.43;;
58097;SDS011;43913;55.940;37.504;2023-01-29T17:02:27;7.25;;;4.20;;
58097;SDS011;43913;55.940;37.504;2023-01-29T17:05:02;8.77;;;4.97;;
58097;SDS011;43913;55.940;37.504;2023-01-29T17:07:30;9.43;;;4.50;;
58097;SDS011;43913;55.940;37.504;2023-01-29T17:10:00;13.93;;;4.70;;
58097;SDS011;43913;55.940;37.504;2023-01-29T17:12:28;7.25;;;4.85;;
58097;SDS011;43913;55.940;37.504;2023-01-29T17:14:57;12.10;;;5.25;;
58097;SDS011;43913;55.940;37.504;2023-01-29T17:17:31;9.98;;;4.43;;
58097;SDS011;43913;55.940;37.504;2023-01-29T17:20:17;7.05;;;4.55;;
58097;SDS011;43913;55.940;37.504;2023-01-29T17:22:45;10.32;;;4.93;;
58097;SDS011;43913;55.940;37.504;2023-01-29T17:25:14;10.30;;;4.45;;
58097;SDS011;43913;55.940;37.504;2023-01-29T17:27:41;9.15;;;3.80;;
58097;SDS011;43913;55.940;37.504;2023-01-29T17:30:13;7.15;;;4.78;;
58097;SDS011;43913;55.940;37.504;2023-01-29T17:32:40;10.23;;;4.60;;
58097;SDS011;43913;55.940;37.504;2023-01-29T17:35:07;9.50;;;4.30;;
58097;SDS011;43913;55.940;37.504;2023-01-29T17:37:36;7.57;;;4.38;;
58097;SDS011;43913;55.940;37.504;2023-01-29T17:40:02;5.78;;;3.95;;
58097;SDS011;43913;55.940;37.504;2023-01-29T17:42:31;7.00;;;4.10;;
58097;SDS011;43913;55.940;37.504;2023-01-29T17:44:57;16.67;;;4.53;;
58097;SDS011;43913;55.940;37.504;2023-01-29T17:47:22;6.93;;;4.07;;
58097;SDS011;43913;55.940;37.504;2023-01-29T17:49:48;10.82;;;4.40;;
58097;SDS011;43913;55.940;37.504;2023-01-29T17:52:15;12.32;;;5.82;;
58097;SDS011;43913;55.940;37.504;2023-01-29T17:54:41;16.08;;;7.10;;
58097;SDS011;43913;55.940;37.504;2023-01-29T17:57:07;15.30;;;8.52;;
58097;SDS011;43913;55.940;37.504;2023-01-29T17:59:34;18.42;;;8.90;;
58097;SDS011;43913;55.940;37.504;2023-01-29T18:02:00;21.95;;;11.75;;
58097;SDS011;43913;55.940;37.504;2023-01-29T18:04:26;30.80;;;14.63;;
58097;SDS011;43913;55.940;37.504;2023-01-29T18:06:51;26.70;;;14.15;;
58097;SDS011;43913;55.940;37.504;2023-01-29T18:09:19;28.02;;;14.70;;
58097;SDS011;43913;55.940;37.504;2023-01-29T18:11:45;33.65;;;14.52;;
58097;SDS011;43913;55.940;37.504;2023-01-29T18:14:12;36.15;;;16.67;;
58097;SDS011;43913;55.940;37.504;2023-01-29T18:16:38;31.08;;;14.60;;
58097;SDS011;43913;55.940;37.504;2023-01-29T18:19:11;36.60;;;17.27;;
58097;SDS011;43913;55.940;37.504;2023-01-29T18:21:38;37.10;;;15.02;;
58097;SDS011;43913;55.940;37.504;2023-01-29T18:24:04;37.05;;;14.55;;
58097;SDS011;43913;55.940;37.504;2023-01-29T18:26:31;28.88;;;15.57;;
58097;SDS011;43913;55.940;37.504;2023-01-29T18:28:56;30.92;;;15.00;;
58097;SDS011;43913;55.940;37.504;2023-01-29T18:31:22;27.23;;;13.82;;
58097;SDS011;43913;55.940;37.504;2023-01-29T18:33:48;27.80;;;14.52;;
58097;SDS011;43913;55.940;37.504;2023-01-29T18:36:14;26.25;;;13.10;;
58097;SDS011;43913;55.940;37.504;2023-01-29T18:38:40;22.92;;;13.57;;
58097;SDS011;43913;55.940;37.504;2023-01-29T18:41:06;24.08;;;13.18;;
58097;SDS011;43913;55.940;37.504;2023-01-29T18:43:37;21.42;;;11.85;;
58097;SDS011;43913;55.940;37.504;2023-01-29T18:46:03;19.20;;;9.88;;
58097;SDS011;43913;55.940;37.504;2023-01-29T18:48:29;17.85;;;10.57;;
58097;SDS011;43913;55.940;37.504;2023-01-29T18:50:55;16.00;;;9.25;;
58097;SDS011;43913;55.940;37.504;2023-01-29T18:53:21;16.65;;;7.55;;
58097;SDS011;43913;55.940;37.504;2023-01-29T18:56:20;11.68;;;7.68;;
58097;SDS011;43913;55.940;37.504;2023-01-29T18:58:39;15.55;;;7.60;;
58097;SDS011;43913;55.940;37.504;2023-01-29T19:01:05;13.40;;;7.18;;
58097;SDS011;43913;55.940;37.504;2023-01-29T19:03:34;12.57;;;7.05;;
58097;SDS011;43913;55.940;37.504;2023-01-29T19:06:04;12.25;;;7.18;;
58097;SDS011;43913;55.940;37.504;2023-01-29T19:08:31;10.75;;;6.80;;
58097;SDS011;43913;55.940;37.504;2023-01-29T19:10:57;11.80;;;7.20;;
58097;SDS011;43913;55.940;37.504;2023-01-29T19:13:30;13.38;;;6.78;;
58097;SDS011;43913;55.940;37.504;2023-01-29T19:15:56;11.80;;;6.03;;
58097;SDS011;43913;55.940;37.504;2023-01-29T19:18:22;9.55;;;6.13;;
58097;SDS011;43913;55.940;37.504;2023-01-29T19:20:55;9.02;;;5.93;;
58097;SDS011;43913;55.940;37.504;2023-01-29T19:23:21;10.68;;;4.60;;
58097;SDS011;43913;55.940;37.504;2023-01-29T19:25:46;8.18;;;5.28;;
58097;SDS011;43913;55.940;37.504;2023-01-29T19:28:12;6.78;;;5.85;;
58097;SDS011;43913;55.940;37.504;2023-01-29T19:30:38;7.40;;;5.32;;
58097;SDS011;43913;55.940;37.504;2023-01-29T19:33:04;7.35;;;5.22;;
58097;SDS011;43913;55.940;37.504;2023-01-29T19:35:30;5.78;;;4.95;;
58097;SDS011;43913;55.940;37.504;2023-01-29T19:37:58;8.48;;;4.90;;
58097;SDS011;43913;55.940;37.504;2023-01-29T19:40:24;8.63;;;5.65;;
58097;SDS011;43913;55.940;37.504;2023-01-29T19:42:53;6.70;;;5.25;;
58097;SDS011;43913;55.940;37.504;2023-01-29T19:45:22;6.85;;;5.28;;
58097;SDS011;43913;55.940;37.504;2023-01-29T19:47:50;6.90;;;4.85;;
58097;SDS011;43913;55.940;37.504;2023-01-29T19:50:16;7.68;;;4.72;;
58097;SDS011;43913;55.940;37.504;2023-01-29T19:52:42;6.53;;;4.90;;
58097;SDS011;43913;55.940;37.504;2023-01-29T19:55:08;11.30;;;6.30;;
58097;SDS011;43913;55.940;37.504;2023-01-29T19:57:34;8.25;;;5.18;;
58097;SDS011;43913;55.940;37.504;2023-01-29T20:00:00;6.20;;;4.47;;
58097;SDS011;43913;55.940;37.504;2023-01-29T20:02:30;7.43;;;4.60;;
58097;SDS011;43913;55.940;37.504;2023-01-29T20:04:57;7.05;;;4.63;;
58097;SDS011;43913;55.940;37.504;2023-01-29T20:07:25;5.88;;;4.38;;
58097;SDS011;43913;55.940;37.504;2023-01-29T20:09:51;5.38;;;4.07;;
58097;SDS011;43913;55.940;37.504;2023-01-29T20:12:19;7.72;;;5.28;;
58097;SDS011;43913;55.940;37.504;2023-01-29T20:14:45;5.00;;;4.50;;
58097;SDS011;43913;55.940;37.504;2023-01-29T20:17:14;6.35;;;4.63;;
58097;SDS011;43913;55.940;37.504;2023-01-29T20:19:41;10.95;;;4.82;;
58097;SDS011;43913;55.940;37.504;2023-01-29T20:22:08;7.68;;;5.28;;
58097;SDS011;43913;55.940;37.504;2023-01-29T20:24:33;6.82;;;4.78;;
58097;SDS011;43913;55.940;37.504;2023-01-29T20:27:09;5.65;;;4.53;;
58097;SDS011;43913;55.940;37.504;2023-01-29T20:29:36;6.60;;;4.90;;
58097;SDS011;43913;55.940;37.504;2023-01-29T20:32:05;6.72;;;4.75;;
58097;SDS011;43913;55.940;37.504;2023-01-29T20:34:32;7.55;;;5.30;;
58097;SDS011;43913;55.940;37.504;2023-01-29T20:36:58;6.03;;;4.85;;
58097;SDS011;43913;55.940;37.504;2023-01-29T20:39:23;5.60;;;4.70;;
58097;SDS011;43913;55.940;37.504;2023-01-29T20:41:49;5.88;;;4.85;;
58097;SDS011;43913;55.940;37.504;2023-01-29T20:44:15;7.80;;;5.00;;
58097;SDS011;43913;55.940;37.504;2023-01-29T20:46:41;6.90;;;5.45;;
58097;SDS011;43913;55.940;37.504;2023-01-29T20:49:06;7.20;;;4.85;;
58097;SDS011;43913;55.940;37.504;2023-01-29T20:51:33;7.90;;;4.75;;
58097;SDS011;43913;55.940;37.504;2023-01-29T20:53:59;8.35;;;5.22;;
58097;SDS011;43913;55.940;37.504;2023-01-29T20:56:24;9.93;;;5.30;;
58097;SDS011;43913;55.940;37.504;2023-01-29T20:58:50;9.93;;;4.82;;
58097;SDS011;43913;55.940;37.504;2023-01-29T21:01:17;6.25;;;4.55;;
58097;SDS011;43913;55.940;37.504;2023-01-29T21:03:44;9.70;;;5.47;;
58097;SDS011;43913;55.940;37.504;2023-01-29T21:06:11;6.28;;;5.30;;
58097;SDS011;43913;55.940;37.504;2023-01-29T21:08:38;7.13;;;4.82;;
58097;SDS011;43913;55.940;37.504;2023-01-29T21:11:04;8.30;;;6.03;;
58097;SDS011;43913;55.940;37.504;2023-01-29T21:13:31;9.45;;;6.25;;
58097;SDS011;43913;55.940;37.504;2023-01-29T21:15:57;8.45;;;5.20;;
58097;SDS011;43913;55.940;37.504;2023-01-29T21:18:23;8.52;;;5.20;;
58097;SDS011;43913;55.940;37.504;2023-01-29T21:20:50;7.18;;;5.55;;
58097;SDS011;43913;55.940;37.504;2023-01-29T21:23:24;6.43;;;5.20;;
58097;SDS011;43913;55.940;37.504;2023-01-29T21:25:50;7.32;;;5.70;;
58097;SDS011;43913;55.940;37.504;2023-01-29T21:28:15;8.10;;;6.45;;
58097;SDS011;43913;55.940;37.504;2023-01-29T21:30:41;7.80;;;5.25;;
58097;SDS011;43913;55.940;37.504;2023-01-29T21:33:07;8.25;;;5.75;;
58097;SDS011;43913;55.940;37.504;2023-01-29T21:35:32;10.18;;;6.88;;
58097;SDS011;43913;55.940;37.504;2023-01-29T21:38:01;8.32;;;5.78;;
58097;SDS011;43913;55.940;37.504;2023-01-29T21:40:27;8.35;;;6.30;;
58097;SDS011;43913;55.940;37.504;2023-01-29T21:42:54;9.95;;;6.25;;
58097;SDS011;43913;55.940;37.504;2023-01-29T21:45:36;7.93;;;6.13;;
58097;SDS011;43913;55.940;37.504;2023-01-29T21:48:02;9.20;;;5.35;;
58097;SDS011;43913;55.940;37.504;2023-01-29T21:50:28;8.38;;;5.97;;
58097;SDS011;43913;55.940;37.504;2023-01-29T21:52:54;8.00;;;6.57;;
58097;SDS011;43913;55.940;37.504;2023-01-29T21:55:20;10.95;;;6.22;;
58097;SDS011;43913;55.940;37.504;2023-01-29T21:57:45;6.60;;;5.57;;
58097;SDS011;43913;55.940;37.504;2023-01-29T22:00:12;8.18;;;6.18;;
58097;SDS011;43913;55.940;37.504;2023-01-29T22:02:38;7.00;;;5.60;;
58097;SDS011;43913;55.940;37.504;2023-01-29T22:05:05;9.00;;;6.40;;
58097;SDS011;43913;55.940;37.504;2023-01-29T22:07:31;8.65;;;6.85;;
58097;SDS011;43913;55.940;37.504;2023-01-29T22:09:57;6.95;;;5.50;;
58097;SDS011;43913;55.940;37.504;2023-01-29T22:12:24;9.00;;;6.38;;
58097;SDS011;43913;55.940;37.504;2023-01-29T22:14:50;8.00;;;6.15;;
58097;SDS011;43913;55.940;37.504;2023-01-29T22:17:16;7.85;;;6.32;;
58097;SDS011;43913;55.940;37.504;2023-01-29T22:19:43;10.13;;;6.55;;
58097;SDS011;43913;55.940;37.504;2023-01-29T22:22:15;9.65;;;5.72;;
58097;SDS011;43913;55.940;37.504;2023-01-29T22:24:42;6.18;;;5.50;;
58097;SDS011;43913;55.940;37.504;2023-01-29T22:27:11;7.55;;;5.85;;
58097;SDS011;43913;55.940;37.504;2023-01-29T22:29:39;6.30;;;5.00;;
58097;SDS011;43913;55.940;37.504;2023-01-29T22:32:04;8.10;;;5.28;;
58097;SDS011;43913;55.940;37.504;2023-01-29T22:34:31;9.40;;;6.20;;
58097;SDS011;43913;55.940;37.504;2023-01-29T22:36:57;8.68;;;6.68;;
58097;SDS011;43913;55.940;37.504;2023-01-29T22:39:23;8.55;;;6.20;;
58097;SDS011;43913;55.940;37.504;2023-01-29T22:41:50;10.05;;;5.95;;
58097;SDS011;43913;55.940;37.504;2023-01-29T22:44:18;8.82;;;5.05;;
58097;SDS011;43913;55.940;37.504;2023-01-29T22:46:45;7.88;;;5.80;;
58097;SDS011;43913;55.940;37.504;2023-01-29T22:49:11;8.45;;;5.90;;
58097;SDS011;43913;55.940;37.504;2023-01-29T22:51:37;7.13;;;6.00;;
58097;SDS011;43913;55.940;37.504;2023-01-29T22:54:02;6.95;;;5.95;;
58097;SDS011;43913;55.940;37.504;2023-01-29T22:56:28;8.63;;;6.10;;
58097;SDS011;43913;55.940;37.504;2023-01-29T22:58:56;7.97;;;5.97;;
58097;SDS011;43913;55.940;37.504;2023-01-29T23:01:23;8.55;;;6.40;;
58097;SDS011;43913;55.940;37.504;2023-01-29T23:03:50;7.30;;;5.65;;
58097;SDS011;43913;55.940;37.504;2023-01-29T23:06:16;8.15;;;6.20;;
58097;SDS011;43913;55.940;37.504;2023-01-29T23:08:43;11.32;;;6.13;;
58097;SDS011;43913;55.940;37.504;2023-01-29T23:11:09;7.03;;;5.30;;
58097;SDS011;43913;55.940;37.504;2023-01-29T23:13:43;7.22;;;5.85;;
58097;SDS011;43913;55.940;37.504;2023-01-29T23:16:14;8.48;;;5.47;;
58097;SDS011;43913;55.940;37.504;2023-01-29T23:18:41;7.28;;;5.38;;
58097;SDS011;43913;55.940;37.504;2023-01-29T23:21:09;7.55;;;5.15;;
58097;SDS011;43913;55.940;37.504;2023-01-29T23:23:35;7.32;;;5.70;;
58097;SDS011;43913;55.940;37.504;2023-01-29T23:26:04;6.20;;;5.47;;
58097;SDS011;43913;55.940;37.504;2023-01-29T23:28:52;7.50;;;4.82;;
58097;SDS011;43913;55.940;37.504;2023-01-29T23:31:19;10.23;;;5.95;;
58097;SDS011;43913;55.940;37.504;2023-01-29T23:33:44;8.25;;;5.05;;
58097;SDS011;43913;55.940;37.504;2023-01-29T23:36:10;8.77;;;6.00;;
58097;SDS011;43913;55.940;37.504;2023-01-29T23:38:36;7.45;;;5.10;;
58097;SDS011;43913;55.940;37.504;2023-01-29T23:41:02;7.90;;;5.45;;
58097;SDS011;43913;55.940;37.504;2023-01-29T23:43:28;5.78;;;4.40;;
58097;SDS011;43913;55.940;37.504;2023-01-29T23:45:54;5.40;;;4.50;;
58097;SDS011;43913;55.940;37.504;2023-01-29T23:48:20;6.68;;;5.03;;
58097;SDS011;43913;55.940;37.504;2023-01-29T23:50:46;7.65;;;5.50;;
58097;SDS011;43913;55.940;37.504;2023-01-29T23:53:12;6.05;;;5.00;;
58097;SDS011;43913;55.940;37.504;2023-01-29T23:55:38;7.05;;;4.78;;
58097;SDS011;43913;55.940;37.504;2023-01-29T23:58:06;7.28;;;4.75;;
